sensor_id;sensor_type;location;lat;lon;timestamp;P1;durP1;ratioP1;P2;durP2;ratioP2
677;SDS011;321;48.814;9.132;2023-03-01T00:02:12;2.40;;;1.70;;
677;SDS011;321;48.814;9.132;2023-03-01T00:04:38;1.07;;;0.60;;
677;SDS011;321;48.814;9.132;2023-03-01T00:07:03;1.30;;;1.00;;
677;SDS011;321;48.814;9.132;2023-03-01T00:09:29;3.20;;;2.47;;
677;SDS011;321;48.814;9.132;2023-03-01T00:11:54;5.43;;;2.60;;
677;SDS011;321;48.814;9.132;2023-03-01T00:14:20;2.13;;;1.30;;
677;SDS011;321;48.814;9.132;2023-03-01T00:16:46;2.10;;;1.03;;
677;SDS011;321;48.814;9.132;2023-03-01T00:19:18;1.20;;;0.77;;
677;SDS011;321;48.814;9.132;2023-03-01T00:21:45;4.95;;;1.23;;
677;SDS011;321;48.814;9.132;2023-03-01T00:24:11;2.08;;;1.85;;
677;SDS011;321;48.814;9.132;2023-03-01T00:26:36;1.57;;;1.43;;
677;SDS011;321;48.814;9.132;2023-03-01T00:29:02;1.30;;;1.00;;
677;SDS011;321;48.814;9.132;2023-03-01T00:31:29;1.10;;;0.77;;
677;SDS011;321;48.814;9.132;2023-03-01T00:33:57;1.77;;;1.58;;
677;SDS011;321;48.814;9.132;2023-03-01T00:36:28;6.53;;;2.00;;
677;SDS011;321;48.814;9.132;2023-03-01T00:38:56;1.27;;;1.08;;
677;SDS011;321;48.814;9.132;2023-03-01T00:41:22;1.43;;;1.20;;
677;SDS011;321;48.814;9.132;2023-03-01T00:43:48;1.40;;;0.80;;
677;SDS011;321;48.814;9.132;2023-03-01T00:46:18;1.10;;;0.60;;
677;SDS011;321;48.814;9.132;2023-03-01T00:48:45;3.35;;;1.77;;
677;SDS011;321;48.814;9.132;2023-03-01T00:51:18;1.53;;;0.83;;
677;SDS011;321;48.814;9.132;2023-03-01T00:53:46;1.08;;;0.50;;
677;SDS011;321;48.814;9.132;2023-03-01T00:56:13;1.40;;;1.25;;
677;SDS011;321;48.814;9.132;2023-03-01T00:58:40;2.78;;;1.05;;
677;SDS011;321;48.814;9.132;2023-03-01T01:01:10;2.88;;;2.05;;
677;SDS011;321;48.814;9.132;2023-03-01T01:03:53;3.47;;;1.70;;
677;SDS011;321;48.814;9.132;2023-03-01T01:06:28;2.20;;;2.10;;
677;SDS011;321;48.814;9.132;2023-03-01T01:08:59;1.10;;;0.63;;
677;SDS011;321;48.814;9.132;2023-03-01T01:11:25;2.30;;;1.92;;
677;SDS011;321;48.814;9.132;2023-03-01T01:13:52;1.10;;;0.50;;
677;SDS011;321;48.814;9.132;2023-03-01T01:16:18;1.50;;;0.90;;
677;SDS011;321;48.814;9.132;2023-03-01T01:18:46;1.77;;;1.23;;
677;SDS011;321;48.814;9.132;2023-03-01T01:21:13;1.47;;;1.13;;
677;SDS011;321;48.814;9.132;2023-03-01T01:23:40;2.47;;;1.90;;
677;SDS011;321;48.814;9.132;2023-03-01T01:26:08;1.20;;;1.00;;
677;SDS011;321;48.814;9.132;2023-03-01T01:28:53;1.33;;;1.02;;
677;SDS011;321;48.814;9.132;2023-03-01T01:31:19;3.17;;;2.60;;
677;SDS011;321;48.814;9.132;2023-03-01T01:33:48;1.65;;;1.08;;
677;SDS011;321;48.814;9.132;2023-03-01T01:36:14;1.70;;;1.52;;
677;SDS011;321;48.814;9.132;2023-03-01T01:38:40;1.85;;;1.17;;
677;SDS011;321;48.814;9.132;2023-03-01T01:41:07;2.38;;;1.15;;
677;SDS011;321;48.814;9.132;2023-03-01T01:43:37;1.20;;;0.98;;
677;SDS011;321;48.814;9.132;2023-03-01T01:48:58;1.45;;;1.35;;
677;SDS011;321;48.814;9.132;2023-03-01T01:51:28;2.15;;;1.75;;
677;SDS011;321;48.814;9.132;2023-03-01T01:54:03;3.53;;;1.60;;
677;SDS011;321;48.814;9.132;2023-03-01T01:56:37;1.27;;;0.75;;
677;SDS011;321;48.814;9.132;2023-03-01T01:59:08;2.65;;;0.95;;
677;SDS011;321;48.814;9.132;2023-03-01T02:01:34;1.60;;;1.50;;
677;SDS011;321;48.814;9.132;2023-03-01T02:03:59;1.77;;;1.17;;
677;SDS011;321;48.814;9.132;2023-03-01T02:06:26;1.20;;;1.03;;
677;SDS011;321;48.814;9.132;2023-03-01T02:09:13;3.35;;;2.10;;
677;SDS011;321;48.814;9.132;2023-03-01T02:11:41;1.40;;;1.20;;
677;SDS011;321;48.814;9.132;2023-03-01T02:14:08;1.20;;;0.80;;
677;SDS011;321;48.814;9.132;2023-03-01T02:16:33;7.30;;;3.07;;
677;SDS011;321;48.814;9.132;2023-03-01T02:18:59;1.50;;;1.20;;
677;SDS011;321;48.814;9.132;2023-03-01T02:21:43;4.63;;;3.13;;
677;SDS011;321;48.814;9.132;2023-03-01T02:27:15;2.78;;;2.58;;
677;SDS011;321;48.814;9.132;2023-03-01T02:29:42;1.10;;;0.73;;
677;SDS011;321;48.814;9.132;2023-03-01T02:32:08;1.70;;;1.58;;
677;SDS011;321;48.814;9.132;2023-03-01T02:34:37;1.80;;;1.70;;
677;SDS011;321;48.814;9.132;2023-03-01T02:37:13;4.85;;;4.50;;
677;SDS011;321;48.814;9.132;2023-03-01T02:39:48;1.65;;;1.52;;
677;SDS011;321;48.814;9.132;2023-03-01T02:42:22;1.33;;;1.23;;
677;SDS011;321;48.814;9.132;2023-03-01T02:44:51;3.60;;;2.83;;
677;SDS011;321;48.814;9.132;2023-03-01T02:47:18;5.85;;;2.88;;
677;SDS011;321;48.814;9.132;2023-03-01T02:49:44;1.17;;;1.00;;
677;SDS011;321;48.814;9.132;2023-03-01T02:55:09;3.67;;;2.00;;
677;SDS011;321;48.814;9.132;2023-03-01T02:57:38;2.35;;;1.90;;
677;SDS011;321;48.814;9.132;2023-03-01T03:00:08;12.88;;;2.85;;
677;SDS011;321;48.814;9.132;2023-03-01T03:02:43;2.58;;;1.30;;
677;SDS011;321;48.814;9.132;2023-03-01T03:05:15;1.73;;;1.63;;
677;SDS011;321;48.814;9.132;2023-03-01T03:07:44;1.10;;;0.60;;
677;SDS011;321;48.814;9.132;2023-03-01T03:10:13;2.15;;;0.95;;
677;SDS011;321;48.814;9.132;2023-03-01T03:12:44;3.50;;;2.50;;
677;SDS011;321;48.814;9.132;2023-03-01T03:15:14;1.35;;;0.93;;
677;SDS011;321;48.814;9.132;2023-03-01T03:17:40;2.43;;;2.23;;
677;SDS011;321;48.814;9.132;2023-03-01T03:20:08;1.25;;;1.15;;
677;SDS011;321;48.814;9.132;2023-03-01T03:22:37;2.40;;;2.20;;
677;SDS011;321;48.814;9.132;2023-03-01T03:25:04;4.22;;;3.55;;
677;SDS011;321;48.814;9.132;2023-03-01T03:27:33;1.55;;;1.45;;
677;SDS011;321;48.814;9.132;2023-03-01T03:29:59;2.13;;;1.93;;
677;SDS011;321;48.814;9.132;2023-03-01T03:32:24;3.70;;;2.43;;
677;SDS011;321;48.814;9.132;2023-03-01T03:34:50;2.73;;;1.97;;
677;SDS011;321;48.814;9.132;2023-03-01T03:37:16;1.20;;;1.00;;
677;SDS011;321;48.814;9.132;2023-03-01T03:40:00;1.67;;;1.48;;
677;SDS011;321;48.814;9.132;2023-03-01T03:42:25;3.20;;;2.30;;
677;SDS011;321;48.814;9.132;2023-03-01T03:44:51;1.93;;;1.23;;
677;SDS011;321;48.814;9.132;2023-03-01T03:47:16;1.70;;;1.10;;
677;SDS011;321;48.814;9.132;2023-03-01T03:49:42;1.20;;;1.00;;
677;SDS011;321;48.814;9.132;2023-03-01T03:52:08;2.13;;;1.93;;
677;SDS011;321;48.814;9.132;2023-03-01T03:54:38;3.85;;;2.70;;
677;SDS011;321;48.814;9.132;2023-03-01T03:57:05;1.10;;;0.60;;
677;SDS011;321;48.814;9.132;2023-03-01T03:59:31;1.20;;;1.00;;
677;SDS011;321;48.814;9.132;2023-03-01T04:01:57;3.13;;;2.57;;
677;SDS011;321;48.814;9.132;2023-03-01T04:04:22;4.03;;;2.37;;
677;SDS011;321;48.814;9.132;2023-03-01T04:06:48;3.87;;;3.33;;
677;SDS011;321;48.814;9.132;2023-03-01T04:09:13;1.33;;;1.20;;
677;SDS011;321;48.814;9.132;2023-03-01T04:11:39;2.13;;;1.93;;
677;SDS011;321;48.814;9.132;2023-03-01T04:14:05;1.40;;;1.23;;
677;SDS011;321;48.814;9.132;2023-03-01T04:16:30;1.77;;;1.67;;
677;SDS011;321;48.814;9.132;2023-03-01T04:18:56;1.97;;;1.17;;
677;SDS011;321;48.814;9.132;2023-03-01T04:21:24;3.63;;;3.33;;
677;SDS011;321;48.814;9.132;2023-03-01T04:23:50;1.60;;;1.50;;
677;SDS011;321;48.814;9.132;2023-03-01T04:26:17;2.28;;;2.08;;
677;SDS011;321;48.814;9.132;2023-03-01T04:28:44;2.05;;;1.60;;
677;SDS011;321;48.814;9.132;2023-03-01T04:31:12;2.90;;;2.00;;
677;SDS011;321;48.814;9.132;2023-03-01T04:33:39;2.85;;;2.65;;
677;SDS011;321;48.814;9.132;2023-03-01T04:36:06;2.83;;;2.17;;
677;SDS011;321;48.814;9.132;2023-03-01T04:38:33;6.97;;;3.60;;
677;SDS011;321;48.814;9.132;2023-03-01T04:41:00;1.58;;;1.13;;
677;SDS011;321;48.814;9.132;2023-03-01T04:43:25;2.70;;;1.17;;
677;SDS011;321;48.814;9.132;2023-03-01T04:45:51;2.73;;;1.90;;
677;SDS011;321;48.814;9.132;2023-03-01T04:48:16;4.03;;;3.57;;
677;SDS011;321;48.814;9.132;2023-03-01T04:50:42;2.40;;;2.20;;
677;SDS011;321;48.814;9.132;2023-03-01T04:53:07;1.87;;;1.60;;
677;SDS011;321;48.814;9.132;2023-03-01T04:55:33;1.10;;;0.50;;
677;SDS011;321;48.814;9.132;2023-03-01T04:57:58;1.43;;;0.90;;
677;SDS011;321;48.814;9.132;2023-03-01T05:00:24;4.23;;;3.07;;
677;SDS011;321;48.814;9.132;2023-03-01T05:02:56;2.60;;;1.17;;
677;SDS011;321;48.814;9.132;2023-03-01T05:05:28;1.63;;;1.27;;
677;SDS011;321;48.814;9.132;2023-03-01T05:07:58;1.38;;;1.25;;
677;SDS011;321;48.814;9.132;2023-03-01T05:10:26;1.83;;;0.82;;
677;SDS011;321;48.814;9.132;2023-03-01T05:12:58;2.70;;;2.50;;
677;SDS011;321;48.814;9.132;2023-03-01T05:15:25;3.25;;;2.38;;
677;SDS011;321;48.814;9.132;2023-03-01T05:17:52;2.45;;;2.03;;
677;SDS011;321;48.814;9.132;2023-03-01T05:20:19;2.85;;;2.08;;
677;SDS011;321;48.814;9.132;2023-03-01T05:22:47;3.42;;;2.95;;
677;SDS011;321;48.814;9.132;2023-03-01T05:25:13;2.10;;;1.30;;
677;SDS011;321;48.814;9.132;2023-03-01T05:27:39;1.57;;;1.47;;
677;SDS011;321;48.814;9.132;2023-03-01T05:30:05;2.47;;;1.70;;
677;SDS011;321;48.814;9.132;2023-03-01T05:32:39;1.70;;;1.60;;
677;SDS011;321;48.814;9.132;2023-03-01T05:35:06;2.60;;;1.58;;
677;SDS011;321;48.814;9.132;2023-03-01T05:37:31;2.23;;;2.03;;
677;SDS011;321;48.814;9.132;2023-03-01T05:39:57;2.30;;;2.10;;
677;SDS011;321;48.814;9.132;2023-03-01T05:42:22;6.10;;;5.60;;
677;SDS011;321;48.814;9.132;2023-03-01T05:44:48;5.40;;;1.80;;
677;SDS011;321;48.814;9.132;2023-03-01T05:47:13;3.33;;;2.97;;
677;SDS011;321;48.814;9.132;2023-03-01T05:49:39;3.60;;;3.13;;
677;SDS011;321;48.814;9.132;2023-03-01T05:52:04;1.27;;;1.03;;
677;SDS011;321;48.814;9.132;2023-03-01T05:54:30;2.33;;;1.37;;
677;SDS011;321;48.814;9.132;2023-03-01T05:56:55;4.83;;;2.23;;
677;SDS011;321;48.814;9.132;2023-03-01T05:59:21;6.03;;;3.07;;
677;SDS011;321;48.814;9.132;2023-03-01T06:01:47;2.63;;;2.40;;
677;SDS011;321;48.814;9.132;2023-03-01T06:04:12;4.90;;;2.83;;
677;SDS011;321;48.814;9.132;2023-03-01T06:06:38;5.03;;;3.30;;
677;SDS011;321;48.814;9.132;2023-03-01T06:09:04;3.20;;;2.85;;
677;SDS011;321;48.814;9.132;2023-03-01T06:11:33;2.42;;;1.73;;
677;SDS011;321;48.814;9.132;2023-03-01T06:13:59;3.97;;;2.28;;
677;SDS011;321;48.814;9.132;2023-03-01T06:16:25;2.33;;;1.83;;
677;SDS011;321;48.814;9.132;2023-03-01T06:18:50;4.23;;;2.77;;
677;SDS011;321;48.814;9.132;2023-03-01T06:21:16;2.20;;;2.00;;
677;SDS011;321;48.814;9.132;2023-03-01T06:23:41;1.53;;;1.43;;
677;SDS011;321;48.814;9.132;2023-03-01T06:26:07;1.40;;;1.30;;
677;SDS011;321;48.814;9.132;2023-03-01T06:28:34;3.35;;;3.05;;
677;SDS011;321;48.814;9.132;2023-03-01T06:31:00;3.72;;;2.08;;
677;SDS011;321;48.814;9.132;2023-03-01T06:33:25;4.77;;;4.33;;
677;SDS011;321;48.814;9.132;2023-03-01T06:35:51;5.33;;;2.40;;
677;SDS011;321;48.814;9.132;2023-03-01T06:38:19;2.38;;;1.60;;
677;SDS011;321;48.814;9.132;2023-03-01T06:40:45;3.47;;;2.17;;
677;SDS011;321;48.814;9.132;2023-03-01T06:43:17;2.63;;;2.42;;
677;SDS011;321;48.814;9.132;2023-03-01T06:45:43;3.03;;;2.83;;
677;SDS011;321;48.814;9.132;2023-03-01T06:48:08;2.97;;;2.77;;
677;SDS011;321;48.814;9.132;2023-03-01T06:50:34;2.27;;;2.10;;
677;SDS011;321;48.814;9.132;2023-03-01T06:53:00;2.35;;;2.20;;
677;SDS011;321;48.814;9.132;2023-03-01T06:55:26;6.00;;;2.15;;
677;SDS011;321;48.814;9.132;2023-03-01T06:57:55;2.50;;;1.87;;
677;SDS011;321;48.814;9.132;2023-03-01T07:00:22;2.05;;;1.85;;
677;SDS011;321;48.814;9.132;2023-03-01T07:02:48;3.65;;;3.33;;
677;SDS011;321;48.814;9.132;2023-03-01T07:05:13;2.10;;;1.80;;
677;SDS011;321;48.814;9.132;2023-03-01T07:07:39;2.00;;;1.90;;
677;SDS011;321;48.814;9.132;2023-03-01T07:10:05;3.67;;;3.00;;
677;SDS011;321;48.814;9.132;2023-03-01T07:12:31;4.68;;;3.00;;
677;SDS011;321;48.814;9.132;2023-03-01T07:14:57;1.77;;;1.67;;
677;SDS011;321;48.814;9.132;2023-03-01T07:17:23;4.53;;;1.67;;
677;SDS011;321;48.814;9.132;2023-03-01T07:19:48;2.47;;;2.27;;
677;SDS011;321;48.814;9.132;2023-03-01T07:22:14;2.40;;;2.20;;
677;SDS011;321;48.814;9.132;2023-03-01T07:24:40;3.80;;;2.57;;
677;SDS011;321;48.814;9.132;2023-03-01T07:27:06;1.80;;;1.65;;
677;SDS011;321;48.814;9.132;2023-03-01T07:29:32;3.03;;;2.83;;
677;SDS011;321;48.814;9.132;2023-03-01T07:31:57;1.77;;;1.60;;
677;SDS011;321;48.814;9.132;2023-03-01T07:34:23;3.23;;;3.03;;
677;SDS011;321;48.814;9.132;2023-03-01T07:36:49;1.20;;;1.00;;
677;SDS011;321;48.814;9.132;2023-03-01T07:39:14;2.37;;;2.00;;
677;SDS011;321;48.814;9.132;2023-03-01T07:41:40;3.40;;;3.17;;
677;SDS011;321;48.814;9.132;2023-03-01T07:44:06;3.43;;;3.23;;
677;SDS011;321;48.814;9.132;2023-03-01T07:46:31;3.80;;;2.03;;
677;SDS011;321;48.814;9.132;2023-03-01T07:48:57;2.60;;;2.40;;
677;SDS011;321;48.814;9.132;2023-03-01T07:51:23;2.83;;;2.63;;
677;SDS011;321;48.814;9.132;2023-03-01T07:53:48;5.83;;;4.60;;
677;SDS011;321;48.814;9.132;2023-03-01T07:56:15;3.87;;;3.03;;
677;SDS011;321;48.814;9.132;2023-03-01T07:58:45;3.50;;;3.20;;
677;SDS011;321;48.814;9.132;2023-03-01T08:01:15;2.20;;;2.00;;
677;SDS011;321;48.814;9.132;2023-03-01T08:03:44;3.78;;;2.70;;
677;SDS011;321;48.814;9.132;2023-03-01T08:06:10;2.73;;;2.07;;
677;SDS011;321;48.814;9.132;2023-03-01T08:08:37;5.35;;;2.35;;
677;SDS011;321;48.814;9.132;2023-03-01T08:11:03;2.57;;;2.00;;
677;SDS011;321;48.814;9.132;2023-03-01T08:13:30;4.63;;;4.30;;
677;SDS011;321;48.814;9.132;2023-03-01T08:16:04;2.60;;;1.85;;
677;SDS011;321;48.814;9.132;2023-03-01T08:18:31;2.33;;;2.13;;
677;SDS011;321;48.814;9.132;2023-03-01T08:21:04;3.43;;;3.13;;
677;SDS011;321;48.814;9.132;2023-03-01T08:23:30;2.30;;;1.80;;
677;SDS011;321;48.814;9.132;2023-03-01T08:26:06;2.30;;;2.10;;
677;SDS011;321;48.814;9.132;2023-03-01T08:28:34;6.78;;;2.50;;
677;SDS011;321;48.814;9.132;2023-03-01T08:30:59;3.93;;;2.87;;
677;SDS011;321;48.814;9.132;2023-03-01T08:33:25;1.10;;;0.73;;
677;SDS011;321;48.814;9.132;2023-03-01T08:35:51;3.07;;;1.50;;
677;SDS011;321;48.814;9.132;2023-03-01T08:38:17;3.70;;;3.40;;
677;SDS011;321;48.814;9.132;2023-03-01T08:40:42;6.57;;;2.63;;
677;SDS011;321;48.814;9.132;2023-03-01T08:43:08;2.07;;;1.90;;
677;SDS011;321;48.814;9.132;2023-03-01T08:45:33;2.20;;;2.00;;
677;SDS011;321;48.814;9.132;2023-03-01T08:47:59;3.77;;;3.47;;
677;SDS011;321;48.814;9.132;2023-03-01T08:50:24;4.50;;;4.20;;
677;SDS011;321;48.814;9.132;2023-03-01T08:52:50;3.07;;;1.90;;
677;SDS011;321;48.814;9.132;2023-03-01T08:55:16;6.13;;;4.23;;
677;SDS011;321;48.814;9.132;2023-03-01T08:57:42;4.18;;;3.30;;
677;SDS011;321;48.814;9.132;2023-03-01T09:00:09;3.90;;;3.60;;
677;SDS011;321;48.814;9.132;2023-03-01T09:02:36;4.60;;;3.85;;
677;SDS011;321;48.814;9.132;2023-03-01T09:05:02;6.97;;;6.22;;
677;SDS011;321;48.814;9.132;2023-03-01T09:07:28;6.80;;;4.20;;
677;SDS011;321;48.814;9.132;2023-03-01T09:09:53;5.50;;;5.00;;
677;SDS011;321;48.814;9.132;2023-03-01T09:12:20;2.60;;;2.40;;
677;SDS011;321;48.814;9.132;2023-03-01T09:14:46;4.15;;;3.08;;
677;SDS011;321;48.814;9.132;2023-03-01T09:17:11;2.73;;;2.53;;
677;SDS011;321;48.814;9.132;2023-03-01T09:19:37;9.70;;;6.87;;
677;SDS011;321;48.814;9.132;2023-03-01T09:22:03;9.37;;;4.40;;
677;SDS011;321;48.814;9.132;2023-03-01T09:24:29;4.45;;;4.05;;
677;SDS011;321;48.814;9.132;2023-03-01T09:26:55;5.63;;;5.13;;
677;SDS011;321;48.814;9.132;2023-03-01T09:29:21;9.50;;;6.15;;
677;SDS011;321;48.814;9.132;2023-03-01T09:31:47;5.47;;;4.43;;
677;SDS011;321;48.814;9.132;2023-03-01T09:34:13;3.40;;;3.10;;
677;SDS011;321;48.814;9.132;2023-03-01T09:36:41;9.82;;;6.03;;
677;SDS011;321;48.814;9.132;2023-03-01T09:39:06;4.63;;;3.40;;
677;SDS011;321;48.814;9.132;2023-03-01T09:42:18;6.57;;;5.30;;
677;SDS011;321;48.814;9.132;2023-03-01T09:44:29;5.10;;;4.60;;
677;SDS011;321;48.814;9.132;2023-03-01T09:47:01;5.50;;;4.88;;
677;SDS011;321;48.814;9.132;2023-03-01T09:49:31;7.03;;;4.90;;
677;SDS011;321;48.814;9.132;2023-03-01T09:54:36;5.40;;;4.50;;
677;SDS011;321;48.814;9.132;2023-03-01T09:57:25;8.83;;;5.73;;
677;SDS011;321;48.814;9.132;2023-03-01T10:00:23;7.97;;;4.77;;
677;SDS011;321;48.814;9.132;2023-03-01T10:03:01;6.87;;;6.10;;
677;SDS011;321;48.814;9.132;2023-03-01T10:11:32;5.70;;;4.67;;
677;SDS011;321;48.814;9.132;2023-03-01T10:16:54;6.47;;;5.10;;
677;SDS011;321;48.814;9.132;2023-03-01T10:19:32;4.87;;;4.37;;
677;SDS011;321;48.814;9.132;2023-03-01T10:22:18;7.50;;;5.00;;
677;SDS011;321;48.814;9.132;2023-03-01T10:24:47;8.60;;;5.27;;
677;SDS011;321;48.814;9.132;2023-03-01T10:27:22;5.97;;;4.33;;
677;SDS011;321;48.814;9.132;2023-03-01T10:30:35;6.47;;;5.00;;
677;SDS011;321;48.814;9.132;2023-03-01T10:32:44;10.30;;;7.17;;
677;SDS011;321;48.814;9.132;2023-03-01T10:35:18;10.53;;;6.60;;
677;SDS011;321;48.814;9.132;2023-03-01T10:38:05;7.83;;;6.50;;
677;SDS011;321;48.814;9.132;2023-03-01T10:40:33;8.47;;;5.90;;
677;SDS011;321;48.814;9.132;2023-03-01T10:43:00;6.70;;;4.57;;
677;SDS011;321;48.814;9.132;2023-03-01T10:45:38;8.47;;;6.27;;
677;SDS011;321;48.814;9.132;2023-03-01T10:48:24;5.10;;;4.60;;
677;SDS011;321;48.814;9.132;2023-03-01T10:53:25;5.50;;;4.67;;
677;SDS011;321;48.814;9.132;2023-03-01T10:55:57;10.40;;;5.67;;
677;SDS011;321;48.814;9.132;2023-03-01T10:58:25;11.93;;;5.20;;
677;SDS011;321;48.814;9.132;2023-03-01T11:01:01;8.07;;;6.33;;
677;SDS011;321;48.814;9.132;2023-03-01T11:03:35;4.27;;;3.87;;
677;SDS011;321;48.814;9.132;2023-03-01T11:13:51;6.07;;;4.97;;
677;SDS011;321;48.814;9.132;2023-03-01T11:16:36;7.53;;;5.37;;
677;SDS011;321;48.814;9.132;2023-03-01T11:21:41;5.23;;;4.60;;
677;SDS011;321;48.814;9.132;2023-03-01T11:24:26;4.97;;;3.60;;
677;SDS011;321;48.814;9.132;2023-03-01T11:26:55;9.63;;;4.50;;
677;SDS011;321;48.814;9.132;2023-03-01T11:29:37;5.27;;;4.77;;
677;SDS011;321;48.814;9.132;2023-03-01T11:32:08;6.80;;;4.60;;
677;SDS011;321;48.814;9.132;2023-03-01T11:34:42;9.50;;;6.50;;
677;SDS011;321;48.814;9.132;2023-03-01T11:37:16;4.53;;;4.03;;
677;SDS011;321;48.814;9.132;2023-03-01T11:39:58;5.37;;;4.70;;
677;SDS011;321;48.814;9.132;2023-03-01T11:42:28;6.23;;;5.07;;
677;SDS011;321;48.814;9.132;2023-03-01T11:45:08;4.67;;;3.97;;
677;SDS011;321;48.814;9.132;2023-03-01T11:50:07;7.43;;;5.77;;
677;SDS011;321;48.814;9.132;2023-03-01T11:52:54;11.63;;;4.57;;
677;SDS011;321;48.814;9.132;2023-03-01T11:55:30;6.10;;;4.67;;
677;SDS011;321;48.814;9.132;2023-03-01T11:58:14;4.70;;;4.03;;
677;SDS011;321;48.814;9.132;2023-03-01T12:03:41;5.20;;;4.23;;
677;SDS011;321;48.814;9.132;2023-03-01T12:11:50;8.20;;;5.17;;
677;SDS011;321;48.814;9.132;2023-03-01T12:20:46;7.30;;;4.27;;
677;SDS011;321;48.814;9.132;2023-03-01T12:42:23;4.10;;;3.70;;
677;SDS011;321;48.814;9.132;2023-03-01T12:50:19;7.33;;;5.03;;
677;SDS011;321;48.814;9.132;2023-03-01T12:52:54;8.67;;;4.80;;
677;SDS011;321;48.814;9.132;2023-03-01T13:03:26;4.03;;;3.73;;
677;SDS011;321;48.814;9.132;2023-03-01T13:11:22;3.53;;;3.20;;
677;SDS011;321;48.814;9.132;2023-03-01T13:13:49;6.57;;;3.80;;
677;SDS011;321;48.814;9.132;2023-03-01T13:16:20;8.00;;;4.22;;
677;SDS011;321;48.814;9.132;2023-03-01T13:19:07;2.55;;;2.35;;
677;SDS011;321;48.814;9.132;2023-03-01T13:21:33;3.53;;;2.70;;
677;SDS011;321;48.814;9.132;2023-03-01T13:23:59;3.40;;;2.60;;
677;SDS011;321;48.814;9.132;2023-03-01T13:26:25;5.30;;;4.67;;
677;SDS011;321;48.814;9.132;2023-03-01T13:28:51;4.43;;;4.13;;
677;SDS011;321;48.814;9.132;2023-03-01T13:33:51;4.00;;;3.33;;
677;SDS011;321;48.814;9.132;2023-03-01T13:39:03;3.75;;;3.20;;
677;SDS011;321;48.814;9.132;2023-03-01T13:41:51;3.60;;;3.30;;
677;SDS011;321;48.814;9.132;2023-03-01T13:46:50;5.20;;;4.70;;
677;SDS011;321;48.814;9.132;2023-03-01T13:49:21;7.85;;;5.18;;
677;SDS011;321;48.814;9.132;2023-03-01T13:51:50;6.60;;;4.30;;
677;SDS011;321;48.814;9.132;2023-03-01T13:54:18;4.90;;;3.80;;
677;SDS011;321;48.814;9.132;2023-03-01T13:56:56;3.42;;;3.10;;
677;SDS011;321;48.814;9.132;2023-03-01T13:59:23;4.70;;;3.78;;
677;SDS011;321;48.814;9.132;2023-03-01T14:01:54;6.50;;;3.60;;
677;SDS011;321;48.814;9.132;2023-03-01T14:04:31;5.67;;;4.50;;
677;SDS011;321;48.814;9.132;2023-03-01T14:07:16;5.90;;;4.70;;
677;SDS011;321;48.814;9.132;2023-03-01T14:09:45;3.63;;;3.33;;
677;SDS011;321;48.814;9.132;2023-03-01T14:18:04;7.53;;;3.90;;
677;SDS011;321;48.814;9.132;2023-03-01T14:20:45;5.22;;;4.75;;
677;SDS011;321;48.814;9.132;2023-03-01T14:23:17;5.82;;;5.15;;
677;SDS011;321;48.814;9.132;2023-03-01T14:25:49;4.57;;;4.18;;
677;SDS011;321;48.814;9.132;2023-03-01T14:28:25;5.47;;;3.93;;
677;SDS011;321;48.814;9.132;2023-03-01T14:30:58;5.60;;;5.07;;
677;SDS011;321;48.814;9.132;2023-03-01T14:33:29;4.95;;;3.88;;
677;SDS011;321;48.814;9.132;2023-03-01T14:35:59;6.07;;;4.40;;
677;SDS011;321;48.814;9.132;2023-03-01T14:38:41;3.67;;;3.07;;
677;SDS011;321;48.814;9.132;2023-03-01T14:41:13;4.90;;;3.63;;
677;SDS011;321;48.814;9.132;2023-03-01T14:44:23;3.33;;;3.03;;
677;SDS011;321;48.814;9.132;2023-03-01T14:46:38;5.85;;;4.15;;
677;SDS011;321;48.814;9.132;2023-03-01T14:51:38;4.63;;;3.78;;
677;SDS011;321;48.814;9.132;2023-03-01T14:54:19;5.03;;;4.10;;
677;SDS011;321;48.814;9.132;2023-03-01T14:56:46;5.05;;;4.55;;
677;SDS011;321;48.814;9.132;2023-03-01T14:59:12;4.90;;;3.50;;
677;SDS011;321;48.814;9.132;2023-03-01T15:01:39;3.27;;;2.73;;
677;SDS011;321;48.814;9.132;2023-03-01T15:04:06;5.63;;;4.50;;
677;SDS011;321;48.814;9.132;2023-03-01T15:06:35;5.63;;;3.77;;
677;SDS011;321;48.814;9.132;2023-03-01T15:09:02;4.37;;;3.97;;
677;SDS011;321;48.814;9.132;2023-03-01T15:11:32;5.03;;;3.78;;
677;SDS011;321;48.814;9.132;2023-03-01T15:13:58;3.58;;;3.00;;
677;SDS011;321;48.814;9.132;2023-03-01T15:16:31;6.45;;;5.80;;
677;SDS011;321;48.814;9.132;2023-03-01T15:21:35;3.92;;;3.58;;
677;SDS011;321;48.814;9.132;2023-03-01T15:26:44;6.93;;;3.88;;
677;SDS011;321;48.814;9.132;2023-03-01T15:29:19;4.95;;;4.05;;
677;SDS011;321;48.814;9.132;2023-03-01T15:31:55;3.38;;;3.08;;
677;SDS011;321;48.814;9.132;2023-03-01T15:34:23;4.35;;;3.13;;
677;SDS011;321;48.814;9.132;2023-03-01T15:36:51;4.32;;;3.92;;
677;SDS011;321;48.814;9.132;2023-03-01T15:39:26;6.78;;;3.75;;
677;SDS011;321;48.814;9.132;2023-03-01T15:45:07;6.60;;;3.22;;
677;SDS011;321;48.814;9.132;2023-03-01T15:47:34;4.23;;;3.83;;
677;SDS011;321;48.814;9.132;2023-03-01T15:50:03;3.92;;;2.85;;
677;SDS011;321;48.814;9.132;2023-03-01T15:52:38;4.78;;;4.30;;
677;SDS011;321;48.814;9.132;2023-03-01T15:55:10;5.55;;;5.13;;
677;SDS011;321;48.814;9.132;2023-03-01T15:58:00;2.50;;;2.17;;
677;SDS011;321;48.814;9.132;2023-03-01T16:00:38;2.70;;;2.50;;
677;SDS011;321;48.814;9.132;2023-03-01T16:03:04;3.30;;;2.70;;
677;SDS011;321;48.814;9.132;2023-03-01T16:05:32;6.15;;;3.45;;
677;SDS011;321;48.814;9.132;2023-03-01T16:07:59;8.43;;;4.10;;
677;SDS011;321;48.814;9.132;2023-03-01T16:10:25;5.63;;;2.92;;
677;SDS011;321;48.814;9.132;2023-03-01T16:12:52;8.50;;;5.90;;
677;SDS011;321;48.814;9.132;2023-03-01T16:15:19;6.40;;;5.77;;
677;SDS011;321;48.814;9.132;2023-03-01T16:17:49;3.53;;;3.22;;
677;SDS011;321;48.814;9.132;2023-03-01T16:20:15;5.40;;;3.90;;
677;SDS011;321;48.814;9.132;2023-03-01T16:22:42;5.55;;;3.65;;
677;SDS011;321;48.814;9.132;2023-03-01T16:25:09;13.82;;;6.90;;
677;SDS011;321;48.814;9.132;2023-03-01T16:27:36;5.45;;;3.75;;
677;SDS011;321;48.814;9.132;2023-03-01T16:30:02;3.25;;;2.90;;
677;SDS011;321;48.814;9.132;2023-03-01T16:32:29;5.93;;;5.38;;
677;SDS011;321;48.814;9.132;2023-03-01T16:34:54;5.27;;;4.13;;
677;SDS011;321;48.814;9.132;2023-03-01T16:37:20;9.40;;;3.20;;
677;SDS011;321;48.814;9.132;2023-03-01T16:39:46;3.20;;;2.70;;
677;SDS011;321;48.814;9.132;2023-03-01T16:42:14;4.30;;;2.20;;
677;SDS011;321;48.814;9.132;2023-03-01T16:44:41;5.22;;;4.20;;
677;SDS011;321;48.814;9.132;2023-03-01T16:47:06;6.20;;;4.30;;
677;SDS011;321;48.814;9.132;2023-03-01T16:49:32;4.17;;;3.37;;
677;SDS011;321;48.814;9.132;2023-03-01T16:51:57;5.90;;;4.07;;
677;SDS011;321;48.814;9.132;2023-03-01T16:54:24;5.13;;;4.72;;
677;SDS011;321;48.814;9.132;2023-03-01T16:56:49;5.03;;;4.53;;
677;SDS011;321;48.814;9.132;2023-03-01T16:59:15;8.77;;;4.07;;
677;SDS011;321;48.814;9.132;2023-03-01T17:01:41;6.13;;;3.17;;
677;SDS011;321;48.814;9.132;2023-03-01T17:04:10;4.90;;;2.87;;
677;SDS011;321;48.814;9.132;2023-03-01T17:06:37;6.68;;;4.72;;
677;SDS011;321;48.814;9.132;2023-03-01T17:09:02;4.90;;;4.50;;
677;SDS011;321;48.814;9.132;2023-03-01T17:11:28;6.30;;;4.67;;
677;SDS011;321;48.814;9.132;2023-03-01T17:13:54;6.33;;;5.13;;
677;SDS011;321;48.814;9.132;2023-03-01T17:16:20;5.20;;;4.33;;
677;SDS011;321;48.814;9.132;2023-03-01T17:18:46;7.15;;;3.10;;
677;SDS011;321;48.814;9.132;2023-03-01T17:21:12;3.38;;;2.30;;
677;SDS011;321;48.814;9.132;2023-03-01T17:23:38;4.63;;;4.05;;
677;SDS011;321;48.814;9.132;2023-03-01T17:26:07;6.53;;;4.82;;
677;SDS011;321;48.814;9.132;2023-03-01T17:28:33;5.33;;;3.73;;
677;SDS011;321;48.814;9.132;2023-03-01T17:31:00;3.78;;;3.10;;
677;SDS011;321;48.814;9.132;2023-03-01T17:33:27;5.22;;;3.45;;
677;SDS011;321;48.814;9.132;2023-03-01T17:35:56;4.90;;;3.10;;
677;SDS011;321;48.814;9.132;2023-03-01T17:38:22;3.45;;;3.00;;
677;SDS011;321;48.814;9.132;2023-03-01T17:40:48;3.90;;;3.53;;
677;SDS011;321;48.814;9.132;2023-03-01T17:43:14;5.43;;;4.00;;
677;SDS011;321;48.814;9.132;2023-03-01T17:45:41;5.47;;;4.75;;
677;SDS011;321;48.814;9.132;2023-03-01T17:48:11;8.02;;;7.32;;
677;SDS011;321;48.814;9.132;2023-03-01T17:50:37;3.90;;;3.60;;